Airport View

Enter ICAO identifier to see the current METAR for that AWOS.

KFNL for example

KPIT 271851Z 34009KT 8SM -SN BKN028 OVC036 01/M04 A2986 RMK AO2 SLP129 P0000 T00061044 $

27 Mar 2015 18:58

Phone: 412-472-0145

Other Area AWOS: KAGC - KBVI - KBTP - KAFJ

TAF KPIT 271730Z 2718/2824 32009KT P6SM OVC025 FM281300 34008KT P6SM SCT035